createdAt,value
2016-04-17T00:00:28.740Z,60.14
2016-04-17T00:01:28.757Z,60.14
2016-04-17T00:02:28.776Z,60.33
2016-04-17T00:03:28.794Z,60.14
2016-04-17T00:04:28.813Z,59.85
2016-04-17T00:05:28.847Z,59.19
2016-04-17T00:06:28.849Z,59.56
2016-04-17T00:07:28.884Z,60.52
2016-04-17T00:08:28.901Z,59.76
2016-04-17T00:09:28.968Z,59.76
2016-04-17T00:10:28.938Z,59.56
2016-04-17T00:11:28.957Z,59.38
2016-04-17T00:12:28.991Z,59.09
2016-04-17T00:13:29.009Z,59.47
2016-04-17T00:14:29.027Z,59.09
2016-04-17T00:15:29.045Z,59.28
2016-04-17T00:16:29.064Z,59.09
2016-04-17T00:17:29.082Z,58.9
2016-04-17T00:18:29.116Z,59.28
2016-04-17T00:19:29.134Z,59.28
2016-04-17T00:20:29.152Z,59.28
2016-04-17T00:21:29.187Z,59.47
2016-04-17T00:22:29.189Z,59.28
2016-04-17T00:23:29.208Z,58.99
2016-04-17T00:24:29.414Z,58.99
2016-04-17T00:25:29.260Z,58.8
2016-04-17T00:26:29.278Z,59.38
2016-04-17T00:27:29.296Z,59.47
2016-04-17T00:28:29.315Z,59.28
2016-04-17T00:29:29.348Z,59.38
2016-04-17T00:30:29.366Z,59.19
2016-04-17T00:31:29.385Z,59.28
2016-04-17T00:32:29.404Z,59.47
2016-04-17T00:33:29.421Z,59.09
2016-04-17T00:34:29.440Z,59.09
2016-04-17T00:35:29.459Z,59.19
2016-04-17T00:36:29.477Z,59.19
2016-04-17T00:37:29.355Z,59.38
2016-04-17T00:38:29.529Z,59.28
2016-04-17T00:39:29.438Z,59.19
2016-04-17T00:40:29.565Z,59.28
2016-04-17T00:41:29.584Z,59.28
2016-04-17T00:42:29.603Z,59.38
2016-04-17T00:43:29.637Z,59.28
2016-04-17T00:44:29.654Z,59.19
2016-04-17T00:45:29.689Z,59.19
2016-04-17T00:46:29.691Z,59.38
2016-04-17T00:47:29.709Z,59.34
2016-04-17T00:48:29.728Z,59.56
2016-04-17T00:49:29.762Z,59.38
2016-04-17T00:50:29.781Z,59.76
2016-04-17T00:51:29.798Z,59.47
2016-04-17T00:52:29.817Z,59.56
2016-04-17T00:53:29.836Z,59.47
2016-04-17T00:54:29.886Z,59.47
2016-04-17T00:55:29.888Z,59.56
2016-04-17T00:56:29.906Z,59.38
2016-04-17T00:57:29.924Z,59.38
2016-04-17T00:58:29.942Z,59.73
2016-04-17T00:59:29.960Z,59.56
2016-04-17T01:00:29.980Z,59.76
2016-04-17T01:01:29.997Z,59.85
2016-04-17T01:02:30.032Z,60.14
2016-04-17T01:03:30.049Z,59.73
2016-04-17T01:04:30.068Z,60.02
2016-04-17T01:05:30.086Z,60.11
2016-04-17T01:06:30.105Z,59.82
2016-04-17T01:07:30.123Z,59.82
2016-04-17T01:08:30.157Z,59.92
2016-04-17T01:09:30.175Z,59.63
2016-04-17T01:10:30.193Z,59.53
2016-04-17T01:11:30.212Z,59.92
2016-04-17T01:12:30.230Z,59.82
2016-04-17T01:13:30.265Z,59.82
2016-04-17T01:14:30.267Z,59.53
2016-04-17T01:15:30.300Z,59.92
2016-04-17T01:16:30.334Z,59.92
2016-04-17T01:17:30.337Z,59.63
2016-04-17T01:18:30.356Z,60.02
2016-04-17T01:19:30.374Z,59.82
2016-04-17T01:20:30.392Z,59.73
2016-04-17T01:21:30.411Z,60.04
2016-04-17T01:22:30.444Z,60.14
2016-04-17T01:23:30.463Z,60.11
2016-04-17T01:24:30.528Z,59.82
2016-04-17T01:25:30.500Z,59.63
2016-04-17T01:26:30.517Z,59.92
2016-04-17T01:27:30.536Z,60.39
2016-04-17T01:28:30.569Z,60.11
2016-04-17T01:29:30.588Z,59.82
2016-04-17T01:30:30.607Z,60.02
2016-04-17T01:31:30.625Z,59.92
2016-04-17T01:32:30.643Z,59.82
2016-04-17T01:33:30.661Z,60.11
2016-04-17T01:34:30.679Z,60.39
2016-04-17T01:35:30.714Z,60.3
2016-04-17T01:36:30.732Z,60.3
2016-04-17T01:37:30.751Z,60.02
2016-04-17T01:38:30.768Z,59.92
2016-04-17T01:39:30.818Z,60.49
2016-04-17T01:40:30.804Z,60.97
2016-04-17T01:41:30.840Z,60.87
2016-04-17T01:42:30.857Z,60.49
2016-04-17T01:43:30.876Z,60.11
2016-04-17T01:44:30.894Z,60.58
2016-04-17T01:45:30.928Z,60.11
2016-04-17T01:46:30.931Z,60.68
2016-04-17T01:47:30.949Z,60.58
2016-04-17T01:48:30.983Z,60.97
2016-04-17T01:49:31.001Z,60.87
2016-04-17T01:50:31.019Z,61.16
2016-04-17T01:51:31.038Z,61.44
2016-04-17T01:52:31.056Z,61.25
2016-04-17T01:53:31.075Z,61.63
2016-04-17T01:54:31.109Z,61.54
2016-04-17T01:55:31.111Z,61.35
2016-04-17T01:56:31.161Z,61.92
2016-04-17T01:57:31.147Z,61.63
2016-04-17T01:58:31.182Z,62.11
2016-04-17T01:59:31.200Z,61.73
2016-04-17T02:00:31.219Z,62.11
2016-04-17T02:01:31.236Z,62.21
2016-04-17T02:02:31.271Z,61.54
2016-04-17T02:03:31.288Z,61.73
2016-04-17T02:04:31.292Z,61.63
2016-04-17T02:05:31.326Z,61.73
2016-04-17T02:06:31.344Z,61.92
2016-04-17T02:07:31.393Z,62.21
2016-04-17T02:08:31.380Z,61.44
2016-04-17T02:09:31.415Z,61.63
2016-04-17T02:10:31.433Z,61.83
2016-04-17T02:11:31.451Z,61.63
2016-04-17T02:12:31.470Z,61.54
2016-04-17T02:13:31.487Z,61.54
2016-04-17T02:14:31.506Z,61.54
2016-04-17T02:15:31.539Z,61.73
2016-04-17T02:16:31.543Z,61.44
2016-04-17T02:17:31.576Z,61.54
2016-04-17T02:18:31.611Z,61.54
2016-04-17T02:19:31.628Z,61.83
2016-04-17T02:20:31.631Z,62.02
2016-04-17T02:21:31.681Z,61.83
2016-04-17T02:22:31.673Z,61.83
2016-04-17T02:23:31.691Z,61.92
2016-04-17T02:24:31.725Z,61.73
2016-04-17T02:25:31.744Z,61.63
2016-04-17T02:26:31.761Z,61.83
2016-04-17T02:27:31.780Z,61.83
2016-04-17T02:28:31.799Z,61.63
2016-04-17T02:29:31.832Z,62.11
2016-04-17T02:30:31.835Z,62.11
2016-04-17T02:31:31.869Z,61.63
2016-04-17T02:32:31.888Z,62.21
2016-04-17T02:33:31.906Z,62.11
2016-04-17T02:34:31.924Z,61.63
2016-04-17T02:35:31.943Z,62.11
2016-04-17T02:36:31.960Z,62.49
2016-04-17T02:37:31.995Z,62.88
2016-04-17T02:38:31.998Z,62.02
2016-04-17T02:39:32.032Z,62.68
2016-04-17T02:40:32.049Z,62.68
2016-04-17T02:41:32.068Z,62.78
2016-04-17T02:42:32.086Z,62.02
2016-04-17T02:43:32.104Z,62.4
2016-04-17T02:44:32.139Z,62.78
2016-04-17T02:45:32.157Z,62.97
2016-04-17T02:46:32.175Z,62.4
2016-04-17T02:47:32.193Z,62.59
2016-04-17T02:48:32.211Z,62.78
2016-04-17T02:49:32.231Z,63.07
2016-04-17T02:50:32.248Z,62.59
2016-04-17T02:51:32.283Z,62.97
2016-04-17T02:52:32.300Z,63.54
2016-04-17T02:53:32.303Z,63.83
2016-04-17T02:54:32.336Z,63.16
2016-04-17T02:55:32.356Z,63.64
2016-04-17T02:56:32.374Z,63.45
2016-04-17T02:57:32.392Z,63.16
2016-04-17T02:58:32.410Z,63.35
2016-04-17T02:59:32.429Z,63.92
2016-04-17T03:00:32.447Z,63.35
2016-04-17T03:01:32.480Z,64.02
2016-04-17T03:02:32.499Z,63.73
2016-04-17T03:03:32.518Z,64.12
2016-04-17T03:04:32.536Z,64.12
2016-04-17T03:05:32.554Z,63.92
2016-04-17T03:06:32.573Z,64.21
2016-04-17T03:07:32.591Z,63.92
2016-04-17T03:08:32.609Z,64.12
2016-04-17T03:09:32.643Z,63.92
2016-04-17T03:10:32.662Z,64.21
2016-04-17T03:11:32.679Z,64.21
2016-04-17T03:12:32.714Z,64.21
2016-04-17T03:13:32.717Z,64.4
2016-04-17T03:14:32.735Z,63.83
2016-04-17T03:15:32.753Z,64.21
2016-04-17T03:16:32.771Z,64.31
2016-04-17T03:17:32.805Z,64.31
2016-04-17T03:18:32.839Z,63.83
2016-04-17T03:19:32.842Z,64.12
2016-04-17T03:20:32.860Z,64.12
2016-04-17T03:21:32.941Z,64.21
2016-04-17T03:22:32.897Z,64.21
2016-04-17T03:23:32.931Z,64.59
2016-04-17T03:24:32.934Z,64.47
2016-04-17T03:25:32.967Z,64.5
2016-04-17T03:26:32.986Z,64.59
2016-04-17T03:27:33.019Z,64.4
2016-04-17T03:28:33.038Z,64.78
2016-04-17T03:29:33.040Z,64.59
2016-04-17T03:30:33.075Z,64.18
2016-04-17T03:31:33.108Z,64.21
2016-04-17T03:32:33.111Z,64.09
2016-04-17T03:33:33.129Z,64.47
2016-04-17T03:34:33.148Z,64.18
2016-04-17T03:35:33.165Z,64.21
2016-04-17T03:36:33.200Z,64.28
2016-04-17T03:37:33.234Z,63.99
2016-04-17T03:38:33.237Z,64.18
2016-04-17T03:39:33.254Z,64.18
2016-04-17T03:40:33.273Z,63.89
2016-04-17T03:41:33.292Z,64.12
2016-04-17T03:42:33.310Z,64.28
2016-04-17T03:43:33.328Z,64.28
2016-04-17T03:44:33.346Z,64.47
2016-04-17T03:45:33.365Z,64.37
2016-04-17T03:46:33.383Z,64.56
2016-04-17T03:47:33.417Z,64.65
2016-04-17T03:48:33.436Z,64.28
2016-04-17T03:49:33.454Z,64.56
2016-04-17T03:50:33.473Z,64.56
2016-04-17T03:51:33.490Z,64.37
2016-04-17T03:52:33.508Z,64.18
2016-04-17T03:53:33.543Z,64.37
2016-04-17T03:54:33.545Z,64.37
2016-04-17T03:55:33.580Z,64.09
2016-04-17T03:56:33.597Z,64.65
2016-04-17T03:57:33.631Z,64.28
2016-04-17T03:58:33.634Z,64.18
2016-04-17T03:59:33.496Z,64.65
2016-04-17T04:00:33.671Z,64.56
2016-04-17T04:01:33.689Z,64.75
2016-04-17T04:02:33.708Z,64.47
2016-04-17T04:03:33.741Z,64.56
2016-04-17T04:04:33.760Z,64.85
2016-04-17T04:05:33.778Z,64.56
2016-04-17T04:06:33.797Z,64.56
2016-04-17T04:07:33.815Z,64.56
2016-04-17T04:08:33.833Z,64.75
2016-04-17T04:09:33.867Z,64.65
2016-04-17T04:10:33.885Z,64.47
2016-04-17T04:11:33.903Z,64.37
2016-04-17T04:12:33.922Z,64.75
2016-04-17T04:13:33.940Z,64.56
2016-04-17T04:14:33.959Z,64.65
2016-04-17T04:15:33.976Z,64.47
2016-04-17T04:16:33.996Z,64.75
2016-04-17T04:17:34.014Z,64.37
2016-04-17T04:18:34.032Z,64.75
2016-04-17T04:19:34.065Z,64.28
2016-04-17T04:20:34.084Z,64.47
2016-04-17T04:21:34.102Z,64.47
2016-04-17T04:22:34.136Z,64.75
2016-04-17T04:23:34.139Z,64.75
2016-04-17T04:24:34.158Z,64.47
2016-04-17T04:25:34.175Z,65.42
2016-04-17T04:26:34.194Z,64.94
2016-04-17T04:27:34.211Z,64.65
2016-04-17T04:28:34.230Z,64.65
2016-04-17T04:29:34.249Z,64.65
2016-04-17T04:30:34.283Z,64.85
2016-04-17T04:31:34.302Z,64.56
2016-04-17T04:32:34.319Z,64.75
2016-04-17T04:33:34.338Z,64.65
2016-04-17T04:34:34.356Z,64.47
2016-04-17T04:35:34.375Z,64.65
2016-04-17T04:36:34.393Z,65.13
2016-04-17T04:37:34.411Z,65.42
2016-04-17T04:38:34.429Z,64.65
2016-04-17T04:39:34.463Z,64.75
2016-04-17T04:40:34.482Z,64.85
2016-04-17T04:41:34.499Z,64.94
2016-04-17T04:42:34.518Z,65.42
2016-04-17T04:43:34.537Z,65.33
2016-04-17T04:44:34.554Z,64.85
2016-04-17T04:45:34.573Z,65.23
2016-04-17T04:46:34.606Z,65.13
2016-04-17T04:47:34.610Z,65.39
2016-04-17T04:48:34.659Z,64.85
2016-04-17T04:49:34.662Z,65.33
2016-04-17T04:50:34.664Z,65.04
2016-04-17T04:51:34.714Z,65.13
2016-04-17T04:52:34.733Z,65.1
2016-04-17T04:53:34.751Z,65.04
2016-04-17T04:54:34.769Z,65.42
2016-04-17T04:55:34.787Z,65.67
2016-04-17T04:56:34.789Z,65.61
2016-04-17T04:57:34.824Z,65.33
2016-04-17T04:58:34.842Z,65.13
2016-04-17T04:59:34.876Z,65.61
2016-04-17T05:00:34.895Z,65.52
2016-04-17T05:01:34.913Z,65.7
2016-04-17T05:02:34.947Z,65.52
2016-04-17T05:03:34.965Z,65.52
2016-04-17T05:04:34.968Z,66.09
2016-04-17T05:05:34.986Z,65.61
2016-04-17T05:06:35.021Z,65.77
2016-04-17T05:07:35.023Z,65.89
2016-04-17T05:08:35.041Z,65.89
2016-04-17T05:09:35.074Z,65.8
2016-04-17T05:10:35.203Z,65.04
2016-04-17T05:11:35.112Z,65.8
2016-04-17T05:12:35.130Z,65.58
2016-04-17T05:13:35.132Z,65.86
2016-04-17T05:14:35.167Z,65.8
2016-04-17T05:15:35.184Z,65.8
2016-04-17T05:16:35.204Z,65.86
2016-04-17T05:17:35.221Z,65.48
2016-04-17T05:18:35.240Z,66.09
2016-04-17T05:19:35.289Z,65.77
2016-04-17T05:20:35.276Z,65.7
2016-04-17T05:21:35.294Z,65.61
2016-04-17T05:22:35.314Z,65.77
2016-04-17T05:23:35.331Z,65.7
2016-04-17T05:24:35.365Z,65.67
2016-04-17T05:25:35.430Z,65.8
2016-04-17T05:26:35.386Z,65.7
2016-04-17T05:27:35.420Z,65.99
2016-04-17T05:28:35.423Z,65.99
2016-04-17T05:29:35.441Z,65.42
2016-04-17T05:30:35.460Z,65.99
2016-04-17T05:31:35.494Z,65.33
2016-04-17T05:32:35.511Z,65.96
2016-04-17T05:33:35.530Z,65.7
2016-04-17T05:34:35.564Z,65.52
2016-04-17T05:35:35.567Z,65.8
2016-04-17T05:36:35.585Z,65.8
2016-04-17T05:37:35.604Z,65.52
2016-04-17T05:38:35.621Z,65.61
2016-04-17T05:39:35.640Z,65.61
2016-04-17T05:40:35.737Z,65.8
2016-04-17T05:41:35.693Z,65.86
2016-04-17T05:42:35.710Z,65.52
2016-04-17T05:43:35.713Z,65.7
2016-04-17T05:44:35.748Z,65.52
2016-04-17T05:45:35.766Z,65.96
2016-04-17T05:46:35.784Z,66.18
2016-04-17T05:47:35.802Z,66.56
2016-04-17T05:48:35.821Z,66.47
2016-04-17T05:49:35.839Z,66.56
2016-04-17T05:50:35.857Z,66.18
2016-04-17T05:51:35.876Z,66.38
2016-04-17T05:52:35.738Z,66.56
2016-04-17T05:53:35.912Z,66.18
2016-04-17T05:54:36.134Z,65.99
2016-04-17T05:55:36.011Z,65.89
2016-04-17T05:56:35.967Z,65.89
2016-04-17T05:57:36.016Z,65.7
2016-04-17T05:58:36.020Z,65.61
2016-04-17T05:59:36.038Z,65.99
2016-04-17T06:00:36.056Z,65.99
2016-04-17T06:01:36.074Z,66.18
2016-04-17T06:02:36.093Z,66.09
2016-04-17T06:03:36.148Z,66.18
2016-04-17T06:04:36.221Z,66.09
2016-04-17T06:05:36.264Z,65.89
2016-04-17T06:06:36.323Z,66.38
2016-04-17T06:07:36.396Z,66.56
2016-04-17T06:08:36.431Z,66.28
2016-04-17T06:09:36.463Z,66.47
2016-04-17T06:10:36.387Z,65.8
2016-04-17T06:11:36.544Z,65.7
2016-04-17T06:12:36.561Z,65.61
2016-04-17T06:13:36.585Z,65.7
2016-04-17T06:14:36.625Z,65.89
2016-04-17T06:15:36.633Z,65.52
2016-04-17T06:16:36.657Z,65.61
2016-04-17T06:17:36.680Z,65.7
2016-04-17T06:18:36.716Z,65.7
2016-04-17T06:19:36.721Z,65.7
2016-04-17T06:20:36.756Z,65.8
2016-04-17T06:21:37.028Z,65.52
2016-04-17T06:22:36.813Z,65.7
2016-04-17T06:23:36.816Z,65.52
2016-04-17T06:24:36.835Z,65.8
2016-04-17T06:25:36.854Z,65.52
2016-04-17T06:26:36.905Z,65.61
2016-04-17T06:27:36.893Z,65.42
2016-04-17T06:28:36.911Z,65.8
2016-04-17T06:29:36.945Z,66.28
2016-04-17T06:30:36.963Z,66.47
2016-04-17T06:31:36.825Z,66.56
2016-04-17T06:32:36.984Z,65.8
2016-04-17T06:33:37.018Z,65.7
2016-04-17T06:34:37.036Z,65.52
2016-04-17T06:35:37.055Z,65.99
2016-04-17T06:36:37.073Z,66.56
2016-04-17T06:37:37.122Z,66.38
2016-04-17T06:38:37.110Z,65.89
2016-04-17T06:39:37.143Z,65.8
2016-04-17T06:40:37.210Z,66.09
2016-04-17T06:41:37.165Z,65.7
2016-04-17T06:42:37.198Z,65.99
2016-04-17T06:43:37.218Z,66.28
2016-04-17T06:44:37.251Z,66.18
2016-04-17T06:45:37.254Z,65.99
2016-04-17T06:46:37.272Z,66.38
2016-04-17T06:47:37.290Z,65.8
2016-04-17T06:48:37.309Z,65.89
2016-04-17T06:49:37.327Z,66.18
2016-04-17T06:50:37.345Z,66.18
2016-04-17T06:51:37.364Z,66.09
2016-04-17T06:52:37.382Z,66.28
2016-04-17T06:53:37.400Z,66.38
2016-04-17T06:54:37.418Z,65.89
2016-04-17T06:55:37.452Z,66.94
2016-04-17T06:56:37.470Z,66.28
2016-04-17T06:57:37.490Z,66.94
2016-04-17T06:58:37.507Z,66.56
2016-04-17T06:59:37.526Z,66.28
2016-04-17T07:00:37.559Z,66.38
2016-04-17T07:01:37.562Z,66.66
2016-04-17T07:02:37.597Z,66.28
2016-04-17T07:03:37.614Z,66.66
2016-04-17T07:04:37.617Z,66.66
2016-04-17T07:05:37.652Z,66.56
2016-04-17T07:06:37.654Z,66.38
2016-04-17T07:07:37.688Z,66.09
2016-04-17T07:08:37.706Z,66.18
2016-04-17T07:09:37.724Z,66.09
2016-04-17T07:10:37.743Z,66.28
2016-04-17T07:11:37.760Z,66.09
2016-04-17T07:12:37.780Z,66.28
2016-04-17T07:13:37.798Z,66.18
2016-04-17T07:14:37.815Z,66.31
2016-04-17T07:15:37.834Z,66.5
2016-04-17T07:16:37.868Z,66.22
2016-04-17T07:17:37.886Z,66.02
2016-04-17T07:18:37.905Z,66.41
2016-04-17T07:19:37.923Z,66.5
2016-04-17T07:20:37.942Z,66.5
2016-04-17T07:21:37.959Z,66.41
2016-04-17T07:22:37.994Z,66.5
2016-04-17T07:23:37.996Z,66.69
2016-04-17T07:24:38.015Z,67.17
2016-04-17T07:25:38.033Z,66.12
2016-04-17T07:26:38.067Z,66.88
2016-04-17T07:27:38.070Z,67.07
2016-04-17T07:28:38.104Z,67.27
2016-04-17T07:29:38.122Z,67.46
2016-04-17T07:30:38.140Z,67.27
2016-04-17T07:31:38.158Z,67.17
2016-04-17T07:32:38.177Z,66.88
2016-04-17T07:33:38.195Z,66.88
2016-04-17T07:34:38.214Z,66.31
2016-04-17T07:35:38.247Z,66.6
2016-04-17T07:36:38.250Z,66.12
2016-04-17T07:37:38.284Z,66.22
2016-04-17T07:38:38.287Z,66.6
2016-04-17T07:39:38.352Z,66.22
2016-04-17T07:40:38.339Z,66.41
2016-04-17T07:41:38.357Z,66.12
2016-04-17T07:42:38.376Z,66.22
2016-04-17T07:43:38.394Z,66.12
2016-04-17T07:44:38.413Z,66.31
2016-04-17T07:45:38.430Z,66.6
2016-04-17T07:46:38.480Z,66.6
2016-04-17T07:47:38.482Z,66.41
2016-04-17T07:48:38.501Z,66.15
2016-04-17T07:49:38.520Z,66.15
2016-04-17T07:50:38.537Z,66.35
2016-04-17T07:51:38.556Z,66.15
2016-04-17T07:52:38.574Z,66.44
2016-04-17T07:53:38.609Z,66.44
2016-04-17T07:54:38.612Z,65.67
2016-04-17T07:55:38.661Z,65.77
2016-04-17T07:56:38.679Z,65.96
2016-04-17T07:57:38.697Z,65.96
2016-04-17T07:58:38.700Z,66.15
2016-04-17T07:59:38.717Z,65.67
2016-04-17T08:00:38.753Z,65.3
2016-04-17T08:01:38.755Z,65.77
2016-04-17T08:02:38.789Z,65.58
2016-04-17T08:03:38.807Z,65.77
2016-04-17T08:04:38.841Z,65.2
2016-04-17T08:05:38.844Z,65.01
2016-04-17T08:06:38.846Z,65.1
2016-04-17T08:07:38.880Z,65.1
2016-04-17T08:08:38.914Z,65.39
2016-04-17T08:09:38.949Z,65.39
2016-04-17T08:10:38.952Z,65.2
2016-04-17T08:11:39.000Z,65.3
2016-04-17T08:12:38.987Z,64.91
2016-04-17T08:13:39.021Z,65.48
2016-04-17T08:14:39.040Z,64.91
2016-04-17T08:15:39.058Z,65.48
2016-04-17T08:16:39.061Z,65.39
2016-04-17T08:17:39.079Z,64.72
2016-04-17T08:18:39.128Z,64.81
2016-04-17T08:19:39.115Z,65.3
2016-04-17T08:20:39.181Z,64.72
2016-04-17T08:21:39.198Z,64.43
2016-04-17T08:22:39.234Z,64.85
2016-04-17T08:23:39.189Z,64.56
2016-04-17T08:24:39.223Z,64.56
2016-04-17T08:25:39.256Z,64.75
2016-04-17T08:26:39.259Z,64.28
2016-04-17T08:27:39.278Z,64.09
2016-04-17T08:28:39.312Z,64.18
2016-04-17T08:29:39.315Z,64.18
2016-04-17T08:30:39.348Z,64.18
2016-04-17T08:31:39.367Z,64.28
2016-04-17T08:32:39.385Z,64.37
2016-04-17T08:33:39.403Z,64.09
2016-04-17T08:34:39.422Z,63.89
2016-04-17T08:35:39.455Z,63.89
2016-04-17T08:36:39.474Z,64.47
2016-04-17T08:37:39.492Z,63.89
2016-04-17T08:38:39.510Z,63.6
2016-04-17T08:39:39.529Z,63.6
2016-04-17T08:40:39.547Z,63.99
2016-04-17T08:41:39.566Z,64.18
2016-04-17T08:42:39.600Z,64.37
2016-04-17T08:43:39.603Z,64.28
2016-04-17T08:44:39.636Z,63.42
2016-04-17T08:45:39.654Z,64.18
2016-04-17T08:46:39.673Z,63.8
2016-04-17T08:47:39.691Z,63.42
2016-04-17T08:48:39.725Z,63.42
2016-04-17T08:49:39.727Z,63.51
2016-04-17T08:50:39.746Z,63.51
2016-04-17T08:51:39.765Z,63.6
2016-04-17T08:52:39.799Z,64.09
2016-04-17T08:53:39.817Z,63.6
2016-04-17T08:54:39.834Z,63.89
2016-04-17T08:55:39.868Z,63.23
2016-04-17T08:56:39.871Z,63.23
2016-04-17T08:57:39.890Z,63.13
2016-04-17T08:58:39.924Z,63.23
2016-04-17T08:59:39.942Z,62.94
2016-04-17T09:00:39.961Z,62.55
2016-04-17T09:01:39.979Z,62.46
2016-04-17T09:02:39.997Z,63.03
2016-04-17T09:03:40.015Z,62.75
2016-04-17T09:04:40.033Z,62.75
2016-04-17T09:05:40.067Z,62.75
2016-04-17T09:06:40.102Z,62.94
2016-04-17T09:07:40.105Z,62.75
2016-04-17T09:08:40.122Z,62.65
2016-04-17T09:09:40.141Z,62.65
2016-04-17T09:10:40.158Z,62.94
2016-04-17T09:11:40.194Z,62.46
2016-04-17T09:12:40.196Z,61.89
2016-04-17T09:13:40.230Z,62.08
2016-04-17T09:14:40.248Z,62.27
2016-04-17T09:15:40.267Z,61.89
2016-04-17T09:16:40.300Z,61.98
2016-04-17T09:17:40.319Z,61.79
2016-04-17T09:18:40.321Z,61.79
2016-04-17T09:19:40.199Z,62.08
2016-04-17T09:20:40.374Z,61.98
2016-04-17T09:21:40.392Z,61.98
2016-04-17T09:22:40.410Z,61.69
2016-04-17T09:23:40.428Z,62.27
2016-04-17T09:24:40.463Z,61.98
2016-04-17T09:25:40.481Z,61.98
2016-04-17T09:26:40.499Z,62.18
2016-04-17T09:27:40.518Z,61.32
2016-04-17T09:28:40.537Z,61.41
2016-04-17T09:29:40.554Z,60.93
2016-04-17T09:30:40.573Z,60.93
2016-04-17T09:31:40.590Z,60.84
2016-04-17T09:32:40.609Z,60.74
2016-04-17T09:33:40.628Z,60.55
2016-04-17T09:34:40.724Z,61.22
2016-04-17T09:35:40.680Z,60.55
2016-04-17T09:36:40.714Z,60.84
2016-04-17T09:37:40.717Z,60.93
2016-04-17T09:38:40.735Z,60.81
2016-04-17T09:39:40.753Z,61.32
2016-04-17T09:40:40.787Z,60.9
2016-04-17T09:41:40.806Z,61.22
2016-04-17T09:42:40.839Z,60.64
2016-04-17T09:43:40.841Z,61.22
2016-04-17T09:44:40.860Z,61.03
2016-04-17T09:45:40.878Z,61.22
2016-04-17T09:46:40.913Z,60.93
2016-04-17T09:47:40.930Z,61.13
2016-04-17T09:48:40.950Z,61.51
2016-04-17T09:49:40.968Z,61.47
2016-04-17T09:50:41.002Z,61
2016-04-17T09:51:41.005Z,60.61
2016-04-17T09:52:41.038Z,60.71
2016-04-17T09:53:41.041Z,60.61
2016-04-17T09:54:41.075Z,60.33
2016-04-17T09:55:41.093Z,60.71
2016-04-17T09:56:41.112Z,61
2016-04-17T09:57:41.161Z,60.46
2016-04-17T09:58:41.163Z,60.42
2016-04-17T09:59:41.165Z,60.14
2016-04-17T10:00:41.184Z,60.14
2016-04-17T10:01:41.234Z,60.14
2016-04-17T10:02:41.237Z,60.33
2016-04-17T10:03:41.271Z,60.33
2016-04-17T10:04:41.274Z,59.76
2016-04-17T10:05:41.292Z,60.04
2016-04-17T10:06:41.326Z,59.95
2016-04-17T10:07:41.329Z,59.76
2016-04-17T10:08:41.362Z,59.95
2016-04-17T10:09:41.380Z,59.56
2016-04-17T10:10:41.446Z,59.38
2016-04-17T10:11:41.339Z,59.28
2016-04-17T10:12:41.436Z,59.56
2016-04-17T10:13:41.453Z,59.95
2016-04-17T10:14:41.472Z,59.76
2016-04-17T10:15:41.505Z,60.04
2016-04-17T10:16:41.525Z,60.61
2016-04-17T10:17:41.543Z,59.95
2016-04-17T10:18:41.561Z,60.14
2016-04-17T10:19:41.595Z,59.56
2016-04-17T10:20:41.613Z,59.19
2016-04-17T10:21:41.663Z,59.38
2016-04-17T10:22:41.649Z,58.99
2016-04-17T10:23:41.668Z,58.51
2016-04-17T10:24:41.687Z,58.61
2016-04-17T10:25:41.704Z,58.51
2016-04-17T10:26:41.723Z,58.7
2016-04-17T10:27:41.741Z,58.7
2016-04-17T10:28:41.760Z,58.7
2016-04-17T10:29:41.779Z,58.61
2016-04-17T10:30:41.812Z,58.8
2016-04-17T10:31:41.831Z,58.99
2016-04-17T10:32:41.848Z,57.94
2016-04-17T10:33:41.867Z,58.61
2016-04-17T10:34:41.885Z,58.51
2016-04-17T10:35:41.919Z,58.8
2016-04-17T10:36:41.922Z,58.8
2016-04-17T10:37:41.956Z,58.8
2016-04-17T10:38:41.959Z,58.8
2016-04-17T10:39:41.993Z,58.61
2016-04-17T10:40:42.011Z,58.7
2016-04-17T10:41:42.108Z,58.7
2016-04-17T10:42:42.063Z,58.51
2016-04-17T10:43:42.081Z,58.9
2016-04-17T10:44:42.084Z,59.28
2016-04-17T10:45:42.118Z,59.09
2016-04-17T10:46:42.137Z,58.61
2016-04-17T10:47:42.154Z,58.61
2016-04-17T10:48:42.189Z,58.7
2016-04-17T10:49:42.208Z,58.8
2016-04-17T10:50:42.225Z,59.19
2016-04-17T10:51:42.228Z,58.7
2016-04-17T10:52:42.263Z,58.99
2016-04-17T10:53:42.280Z,58.7
2016-04-17T10:54:42.299Z,58.8
2016-04-17T10:55:42.316Z,58.42
2016-04-17T10:56:42.382Z,58.99
2016-04-17T10:57:42.353Z,58.8
2016-04-17T10:58:42.371Z,58.8
2016-04-17T10:59:42.407Z,58.9
2016-04-17T11:00:42.424Z,59.47
2016-04-17T11:01:42.443Z,58.9
2016-04-17T11:02:42.460Z,59.38
2016-04-17T11:03:42.479Z,59.56
2016-04-17T11:04:42.498Z,59.56
2016-04-17T11:05:42.515Z,59.56
2016-04-17T11:06:42.550Z,59.56
2016-04-17T11:07:42.567Z,59.28
2016-04-17T11:08:42.586Z,59.85
2016-04-17T11:09:42.604Z,59.56
2016-04-17T11:10:42.622Z,59.47
2016-04-17T11:11:42.656Z,59.66
2016-04-17T11:12:42.659Z,59.38
2016-04-17T11:13:42.678Z,59.56
2016-04-17T11:14:42.712Z,59.38
2016-04-17T11:15:42.714Z,59.56
2016-04-17T11:16:42.733Z,59.38
2016-04-17T11:17:42.767Z,59.28
2016-04-17T11:18:42.785Z,59.28
2016-04-17T11:19:42.803Z,58.99
2016-04-17T11:20:42.822Z,59.19
2016-04-17T11:21:42.841Z,58.99
2016-04-17T11:22:42.858Z,59.38
2016-04-17T11:23:42.876Z,59.56
2016-04-17T11:24:42.910Z,60.04
2016-04-17T11:25:42.929Z,59.95
2016-04-17T11:26:42.838Z,60.04
2016-04-17T11:27:42.965Z,60.04
2016-04-17T11:28:42.999Z,59.95
2016-04-17T11:29:43.002Z,60.42
2016-04-17T11:30:43.020Z,60.61
2016-04-17T11:31:43.038Z,60.14
2016-04-17T11:32:43.073Z,60.42
2016-04-17T11:33:43.090Z,60.42
2016-04-17T11:34:43.126Z,60.33
2016-04-17T11:35:43.128Z,59.95
2016-04-17T11:36:43.145Z,60.33
2016-04-17T11:37:43.164Z,60.04
2016-04-17T11:38:43.198Z,60.04
2016-04-17T11:39:43.217Z,59.95
2016-04-17T11:40:43.234Z,60.24
2016-04-17T11:41:43.456Z,59.98
2016-04-17T11:42:43.272Z,59.98
2016-04-17T11:43:43.290Z,60.46
2016-04-17T11:44:43.309Z,59.31
2016-04-17T11:45:43.326Z,59.28
2016-04-17T11:46:43.361Z,59.22
2016-04-17T11:47:43.364Z,59.31
2016-04-17T11:48:43.397Z,59.5
2016-04-17T11:49:43.416Z,59.5
2016-04-17T11:50:43.433Z,58.93
2016-04-17T11:51:43.467Z,59.31
2016-04-17T11:52:43.469Z,59.12
2016-04-17T11:53:43.488Z,59.12
2016-04-17T11:54:43.569Z,58.64
2016-04-17T11:55:43.541Z,58.26
2016-04-17T11:56:43.543Z,58.64
2016-04-17T11:57:43.577Z,58.64
2016-04-17T11:58:43.596Z,59.02
2016-04-17T11:59:43.614Z,58.73
2016-04-17T12:00:43.633Z,57.87
2016-04-17T12:01:43.666Z,57.87
2016-04-17T12:02:43.732Z,58.07
2016-04-17T12:03:42.969Z,58.16
2016-04-17T12:04:43.034Z,58.36
2016-04-17T12:05:43.740Z,58.36
2016-04-17T12:06:43.758Z,58.54
2016-04-17T12:07:43.776Z,58.93
2016-04-17T12:08:43.795Z,58.36
2016-04-17T12:09:43.828Z,58.45
2016-04-17T12:10:43.831Z,58.16
2016-04-17T12:11:44.287Z,58.93
2016-04-17T12:12:43.884Z,58.83
2016-04-17T12:13:43.901Z,58.73
2016-04-17T12:14:43.920Z,58.54
2016-04-17T12:15:43.938Z,58.07
2016-04-17T12:16:43.972Z,58.26
2016-04-17T12:17:43.991Z,58.54
2016-04-17T12:18:44.008Z,58.54
2016-04-17T12:19:44.027Z,58.76
2016-04-17T12:20:44.045Z,59.05
2016-04-17T12:21:44.064Z,58.26
2016-04-17T12:22:44.082Z,58.1
2016-04-17T12:23:44.100Z,58.1
2016-04-17T12:24:44.134Z,58.1
2016-04-17T12:25:44.153Z,57.81
2016-04-17T12:26:44.125Z,58.19
2016-04-17T12:27:44.189Z,57.81
2016-04-17T12:28:44.208Z,58.29
2016-04-17T12:29:44.226Z,58.19
2016-04-17T12:30:44.260Z,57.9
2016-04-17T12:31:44.279Z,58
2016-04-17T12:32:44.297Z,58.19
2016-04-17T12:33:44.315Z,58.29
2016-04-17T12:34:44.333Z,58
2016-04-17T12:35:44.352Z,58.19
2016-04-17T12:36:44.385Z,58.29
2016-04-17T12:37:44.388Z,58.19
2016-04-17T12:38:44.423Z,57.9
2016-04-17T12:39:44.440Z,58.29
2016-04-17T12:40:44.474Z,58
2016-04-17T12:41:44.509Z,57.81
2016-04-17T12:42:44.511Z,57.14
2016-04-17T12:43:44.513Z,57.24
2016-04-17T12:44:44.547Z,57.24
2016-04-17T12:45:44.566Z,57.33
2016-04-17T12:46:44.584Z,57.43
2016-04-17T12:47:44.603Z,57.53
2016-04-17T12:48:44.620Z,57.24
2016-04-17T12:49:44.686Z,57.24
2016-04-17T12:50:44.672Z,57.04
2016-04-17T12:51:44.691Z,56.95
2016-04-17T12:52:44.710Z,57.43
2016-04-17T12:53:44.727Z,57.14
2016-04-17T12:54:44.746Z,57.04
2016-04-17T12:55:44.780Z,57.04
2016-04-17T12:56:44.860Z,57.24